Time;durP1;ratioP1;P1;durP2;ratioP2;P2;SDS_P1;SDS_P2;PMS_P1;PMS_P2;Temp;Humidity;BMP_temperature;BMP_pressure;BME280_temperature;BME280_humidity;BME280_pressure;Samples;Min_cycle;Max_cycle;Signal;HPM_P1;HPM_P2
2022/09/10 00:01:58;;;;;;;11.50;10.40;;;;;;;22.30;83.73;94798.28;5072043;28;20449;-82
2022/09/10 00:04:25;;;;;;;14.90;13.30;;;;;;;22.27;83.72;94794.19;5071925;28;20436;-82
2022/09/10 00:06:54;;;;;;;11.93;10.90;;;;;;;22.27;83.72;94796.03;5071820;28;20480;-82
2022/09/10 00:09:21;;;;;;;17.17;11.57;;;;;;;22.13;83.86;94789.81;5071829;28;20479;-82
2022/09/10 00:11:48;;;;;;;17.37;11.93;;;;;;;21.96;84.56;94784.00;5071622;28;20463;-82
2022/09/10 00:14:17;;;;;;;12.80;11.50;;;;;;;21.99;84.58;94793.47;5074051;28;20488;-81
2022/09/10 00:16:45;;;;;;;13.80;11.63;;;;;;;22.01;84.71;94784.25;5075339;28;20888;-82
2022/09/10 00:19:12;;;;;;;15.97;11.87;;;;;;;22.03;84.61;94792.88;5075615;28;20943;-81
2022/09/10 00:21:39;;;;;;;11.37;10.20;;;;;;;21.99;84.95;94785.47;5075714;28;20436;-82
2022/09/10 00:24:08;;;;;;;18.97;12.37;;;;;;;21.94;84.95;94789.53;5075835;28;20429;-82
2022/09/10 00:26:38;;;;;;;18.63;12.60;;;;;;;21.90;85.33;94782.13;5057012;28;20441;-81
2022/09/10 00:29:06;;;;;;;17.53;13.47;;;;;;;21.86;85.49;94780.91;5075163;28;20481;-82
2022/09/10 00:31:34;;;;;;;15.30;12.23;;;;;;;21.84;84.96;94778.44;5075483;28;21057;-81
2022/09/10 00:34:02;;;;;;;17.93;12.37;;;;;;;21.69;85.91;94774.31;5075501;28;20989;-82
2022/09/10 00:36:32;;;;;;;13.77;12.37;;;;;;;21.68;85.94;94786.81;5075188;28;20449;-81
2022/09/10 00:39:02;;;;;;;24.23;13.47;;;;;;;21.59;86.50;94786.16;5075366;28;20437;-83
2022/09/10 00:41:32;;;;;;;13.97;12.57;;;;;;;21.56;86.41;94788.41;5075333;28;20543;-82
2022/09/10 00:44:04;;;;;;;13.80;12.50;;;;;;;21.63;86.54;94776.72;5075523;28;20447;-82
2022/09/10 00:46:41;;;;;;;14.40;12.53;;;;;;;21.55;86.70;94779.59;5056398;28;20440;-81
2022/09/10 00:49:14;;;;;;;14.20;12.20;;;;;;;21.57;86.57;94785.53;5075204;28;20806;-82
2022/09/10 00:51:42;;;;;;;13.63;12.23;;;;;;;21.56;86.95;94783.91;5075135;28;20868;-82
2022/09/10 00:54:09;;;;;;;15.57;13.33;;;;;;;21.64;86.52;94791.72;5074822;28;20487;-82
2022/09/10 00:56:37;;;;;;;18.77;12.40;;;;;;;21.62;86.88;94791.09;5056233;28;20555;-82
2022/09/10 00:59:07;;;;;;;12.90;11.77;;;;;;;21.65;86.25;94796.03;5056467;28;20452;-82
2022/09/10 01:01:38;;;;;;;16.40;13.30;;;;;;;21.65;86.32;94790.69;5074883;28;20441;-82
2022/09/10 01:04:09;;;;;;;19.83;13.80;;;;;;;21.65;86.37;94790.69;5074721;28;20871;-82
2022/09/10 01:06:36;;;;;;;15.90;12.53;;;;;;;21.60;86.69;94779.78;5074974;28;20520;-82
2022/09/10 01:09:04;;;;;;;13.63;12.33;;;;;;;21.62;86.47;94769.75;5074835;28;20441;-82
2022/09/10 01:11:53;;;;;;;14.70;12.83;;;;;;;21.71;86.20;94772.25;5074738;28;20584;-82
2022/09/10 01:14:36;;;;;;;15.10;13.63;;;;;;;21.72;85.89;94771.22;5074532;28;20487;-82
2022/09/10 01:17:12;;;;;;;13.33;12.03;;;;;;;21.76;85.58;94767.13;5074444;28;20444;-81
2022/09/10 01:20:10;;;;;;;21.03;13.00;;;;;;;21.69;85.81;94763.63;5074503;28;20435;-81
2022/09/10 01:22:58;;;;;;;13.83;12.47;;;;;;;21.47;88.14;94777.09;5074658;28;20483;-82
2022/09/10 01:25:40;;;;;;;21.40;13.27;;;;;;;21.54;88.08;94774.44;5073936;28;20484;-82
2022/09/10 01:28:14;;;;;;;14.40;13.10;;;;;;;21.44;88.46;94772.16;5074360;28;20472;-82
2022/09/10 01:30:43;;;;;;;14.30;12.80;;;;;;;21.39;88.75;94774.56;5074277;28;20469;-81
2022/09/10 01:33:18;;;;;;;15.07;13.63;;;;;;;21.21;90.24;94761.75;5074072;28;20962;-82
2022/09/10 01:35:50;;;;;;;21.53;13.10;;;;;;;21.28;90.07;94767.97;5039018;28;20448;-80
2022/09/10 01:38:22;;;;;;;15.93;13.50;;;;;;;21.32;90.15;94766.53;5074228;28;20455;-82
2022/09/10 01:40:49;;;;;;;15.83;13.50;;;;;;;21.17;90.50;94765.03;5074234;28;20444;-81
2022/09/10 01:43:17;;;;;;;16.77;15.07;;;;;;;20.93;92.24;94761.00;5074102;28;20800;-81
2022/09/10 01:45:58;;;;;;;14.13;12.83;;;;;;;21.02;91.99;94757.97;5074117;28;20456;-81
2022/09/10 01:48:45;;;;;;;16.27;14.57;;;;;;;20.98;92.06;94751.38;5073895;28;20440;-83
2022/09/10 01:51:22;;;;;;;16.87;15.17;;;;;;;21.07;91.87;94761.88;5074098;28;20809;-81
2022/09/10 01:54:10;;;;;;;19.00;15.97;;;;;;;21.11;91.90;94758.63;5073820;28;20476;-81
2022/09/10 01:56:41;;;;;;;16.93;13.50;;;;;;;20.96;91.61;94753.41;5073582;28;20453;-82
2022/09/10 01:59:18;;;;;;;16.33;14.20;;;;;;;21.07;91.28;94765.38;5073698;28;20831;-82
2022/09/10 02:01:49;;;;;;;17.60;14.17;;;;;;;21.13;91.52;94774.44;5073457;28;20800;-83
2022/09/10 02:04:19;;;;;;;16.03;13.83;;;;;;;21.17;91.15;94770.38;5073752;28;20528;-82
2022/09/10 02:06:48;;;;;;;15.30;13.20;;;;;;;21.22;90.93;94775.91;5073435;28;20444;-82
2022/09/10 02:09:16;;;;;;;15.77;13.73;;;;;;;21.28;90.63;94773.31;5073386;28;20445;-82
2022/09/10 02:11:46;;;;;;;15.37;13.03;;;;;;;21.37;90.19;94773.94;5073404;28;20441;-81
2022/09/10 02:14:14;;;;;;;19.43;14.20;;;;;;;21.37;90.11;94776.63;5073117;28;20483;-82
2022/09/10 02:16:46;;;;;;;16.60;14.20;;;;;;;21.46;89.91;94777.28;5073406;28;20440;-82
2022/09/10 02:19:14;;;;;;;18.53;12.90;;;;;;;21.50;89.65;94776.69;5037726;28;21003;-81
2022/09/10 02:21:41;;;;;;;16.40;13.73;;;;;;;21.50;89.25;94789.22;5072965;28;20472;-82
2022/09/10 02:24:11;;;;;;;15.43;14.10;;;;;;;21.54;88.86;94780.59;5073244;28;20448;-82
2022/09/10 02:26:41;;;;;;;16.60;13.87;;;;;;;21.58;89.05;94781.03;5073312;28;20453;-82
2022/09/10 02:29:09;;;;;;;17.23;14.67;;;;;;;21.62;89.22;94784.94;5073012;28;20468;-81
2022/09/10 02:31:38;;;;;;;22.30;13.83;;;;;;;21.63;88.88;94770.56;5073082;28;20445;-82
2022/09/10 02:34:05;;;;;;;16.77;15.00;;;;;;;21.64;88.70;94775.69;5073137;28;20642;-82
2022/09/10 02:36:32;;;;;;;15.67;13.97;;;;;;;21.68;88.28;94772.63;5072198;28;20448;-82
2022/09/10 02:39:01;;;;;;;17.52;14.55;;;;;;;21.69;88.15;94774.31;5072357;28;20443;-82
2022/09/10 02:41:29;;;;;;;17.27;14.97;;;;;;;21.63;87.90;94763.38;5073014;28;20294;-82
2022/09/10 02:43:55;;;;;;;18.00;12.67;;;;;;;21.67;87.29;94768.31;5072771;28;20873;-82
2022/09/10 02:46:22;;;;;;;15.03;13.43;;;;;;;21.68;87.32;94769.94;5072799;28;20448;-81
2022/09/10 02:48:53;;;;;;;16.10;13.63;;;;;;;21.64;87.20;94773.03;5072830;28;20445;-82
2022/09/10 02:51:20;;;;;;;18.10;13.67;;;;;;;21.62;87.14;94780.41;5072778;28;20532;-82
2022/09/10 02:53:48;;;;;;;18.07;13.90;;;;;;;21.63;86.91;94775.91;5072883;28;20452;-81
2022/09/10 02:56:14;;;;;;;14.63;12.80;;;;;;;21.63;86.80;94778.56;5072614;28;21010;-81
2022/09/10 02:58:42;;;;;;;16.33;14.70;;;;;;;21.61;86.60;94778.78;5072934;28;20453;-82
2022/09/10 03:01:11;;;;;;;16.73;12.47;;;;;;;21.61;86.95;94784.13;5072427;28;20455;-82
2022/09/10 03:03:38;;;;;;;15.63;13.43;;;;;;;21.58;86.98;94778.34;5072900;28;20485;-82
2022/09/10 03:06:07;;;;;;;15.23;13.70;;;;;;;21.62;86.78;94776.94;5072533;28;20480;-82
2022/09/10 03:08:35;;;;;;;17.30;14.30;;;;;;;21.63;86.77;94776.72;5073013;28;20447;-82
2022/09/10 03:11:03;;;;;;;16.90;12.80;;;;;;;21.63;86.73;94782.06;5037212;28;20478;-82
2022/09/10 03:13:30;;;;;;;16.73;14.03;;;;;;;21.64;86.63;94780.22;5072629;28;20441;-81
2022/09/10 03:15:57;;;;;;;24.37;13.60;;;;;;;21.64;86.53;94786.38;5072335;28;20476;-82
2022/09/10 03:18:26;;;;;;;16.37;12.63;;;;;;;21.61;86.56;94786.78;5072841;28;20448;-81
2022/09/10 03:20:53;;;;;;;14.03;12.53;;;;;;;21.62;86.58;94790.28;5072631;28;20471;-82
2022/09/10 03:23:22;;;;;;;16.37;11.30;;;;;;;21.62;86.34;94788.44;5072607;28;20460;-82
2022/09/10 03:25:49;;;;;;;14.07;12.67;;;;;;;21.63;86.21;94790.06;5072676;28;20747;-81
2022/09/10 03:28:16;;;;;;;14.53;13.03;;;;;;;21.64;86.70;94794.38;5072028;28;20506;-82
2022/09/10 03:30:42;;;;;;;14.70;13.20;;;;;;;21.64;86.77;94786.38;5072578;28;20978;-82
2022/09/10 03:33:10;;;;;;;17.17;13.83;;;;;;;21.65;87.05;94790.69;5072234;28;20452;-82
2022/09/10 03:35:37;;;;;;;15.73;14.00;;;;;;;21.61;87.50;94784.13;5072201;28;20486;-82
2022/09/10 03:38:04;;;;;;;15.43;13.90;;;;;;;21.59;88.14;94786.16;5072244;28;20901;-82
2022/09/10 03:40:32;;;;;;;20.97;14.43;;;;;;;21.48;89.18;94780.59;5072367;28;20444;-82
2022/09/10 03:43:00;;;;;;;15.80;13.97;;;;;;;21.43;89.57;94775.84;5071975;28;20449;-82
2022/09/10 03:45:27;;;;;;;16.07;14.27;;;;;;;21.42;89.65;94771.53;5071961;28;20506;-82
2022/09/10 03:47:54;;;;;;;16.70;14.87;;;;;;;21.34;89.75;94766.34;5072174;28;20448;-82
2022/09/10 03:50:20;;;;;;;18.83;14.00;;;;;;;21.43;89.97;94772.34;5076308;28;20440;-82
2022/09/10 03:52:47;;;;;;;21.70;15.13;;;;;;;21.39;90.47;94771.91;5076204;28;20441;-82
2022/09/10 03:55:15;;;;;;;19.63;16.40;;;;;;;21.35;90.55;94759.97;5076031;28;20487;-82
2022/09/10 03:57:44;;;;;;;17.20;14.50;;;;;;;21.36;90.51;94764.28;5076077;28;20523;-82
2022/09/10 04:00:12;;;;;;;17.97;15.17;;;;;;;21.33;91.54;94744.16;5076038;28;20453;-81
2022/09/10 04:02:40;;;;;;;16.83;14.47;;;;;;;21.32;91.06;94747.03;5076503;28;20436;-81
2022/09/10 04:05:08;;;;;;;17.60;14.93;;;;;;;21.33;91.46;94738.81;5057244;28;20433;-82
2022/09/10 04:07:35;;;;;;;24.80;14.37;;;;;;;21.32;91.65;94742.53;5076047;28;20440;-82
2022/09/10 04:10:02;;;;;;;15.93;14.43;;;;;;;21.28;91.22;94746.63;5076059;28;20490;-82
2022/09/10 04:12:29;;;;;;;17.60;14.40;;;;;;;21.34;91.45;94761.00;5075866;28;20935;-82
2022/09/10 04:14:57;;;;;;;17.10;14.10;;;;;;;21.36;91.53;94758.13;5075772;28;20484;-82
2022/09/10 04:17:24;;;;;;;18.07;14.90;;;;;;;21.34;91.44;94755.66;5076021;28;20436;-82
2022/09/10 04:19:51;;;;;;;16.77;15.00;;;;;;;21.32;91.46;94766.53;5075540;28;20484;-81
2022/09/10 04:22:18;;;;;;;22.60;15.97;;;;;;;21.30;91.47;94781.13;5074928;28;20444;-82
2022/09/10 04:24:44;;;;;;;18.43;13.93;;;;;;;21.30;91.23;94773.09;5074494;28;20456;-82
2022/09/10 04:27:11;;;;;;;15.77;13.57;;;;;;;21.21;91.21;94760.94;5075821;28;20441;-82
2022/09/10 04:29:38;;;;;;;17.03;14.73;;;;;;;21.27;91.31;94776.19;5075142;28;20990;-82
2022/09/10 04:32:06;;;;;;;17.40;14.37;;;;;;;21.26;91.15;94785.22;5075912;28;20463;-82
2022/09/10 04:34:33;;;;;;;18.10;16.23;;;;;;;21.23;91.07;94785.56;5075759;28;20444;-81
2022/09/10 04:37:00;;;;;;;17.23;13.70;;;;;;;21.25;90.39;94784.38;5075092;28;20441;-82
2022/09/10 04:39:27;;;;;;;15.03;13.60;;;;;;;21.23;90.54;94780.25;5075788;28;20444;-82
2022/09/10 04:41:53;;;;;;;24.20;13.80;;;;;;;21.29;90.30;94782.97;5075435;28;20448;-82
2022/09/10 04:44:20;;;;;;;17.17;14.10;;;;;;;21.33;90.04;94786.88;5075217;28;20440;-82
2022/09/10 04:46:47;;;;;;;15.73;14.20;;;;;;;21.33;89.71;94784.22;5056306;28;20883;-82
2022/09/10 04:49:15;;;;;;;17.90;14.17;;;;;;;21.31;89.20;94778.25;5075033;28;20433;-82
2022/09/10 04:51:42;;;;;;;19.07;14.63;;;;;;;21.32;89.58;94771.88;5075365;28;20444;-82
2022/09/10 04:54:13;;;;;;;19.43;13.47;;;;;;;21.40;89.54;94780.78;5075057;28;20459;-82
2022/09/10 04:56:40;;;;;;;18.23;13.67;;;;;;;21.42;89.52;94771.53;5074799;28;20480;-82
2022/09/10 04:59:07;;;;;;;15.70;13.57;;;;;;;21.44;89.50;94771.34;5075089;28;20444;-82
2022/09/10 05:01:34;;;;;;;15.90;13.83;;;;;;;21.42;89.27;94776.06;5073712;28;20934;-81
2022/09/10 05:04:00;;;;;;;23.60;14.33;;;;;;;21.37;89.21;94773.94;5074779;28;20520;-81
2022/09/10 05:06:29;;;;;;;15.13;13.30;;;;;;;21.35;89.26;94762.66;5075078;28;20948;-81
2022/09/10 05:08:55;;;;;;;15.93;13.07;;;;;;;21.32;89.15;94763.06;5074779;28;20445;-81
2022/09/10 05:11:23;;;;;;;24.43;14.50;;;;;;;21.34;89.85;94766.34;5075081;28;20790;-82
2022/09/10 05:13:50;;;;;;;15.83;13.93;;;;;;;21.32;90.44;94774.56;5074750;28;20523;-82
2022/09/10 05:16:17;;;;;;;14.93;13.43;;;;;;;21.33;91.28;94780.72;5074677;28;20559;-82
2022/09/10 05:18:43;;;;;;;18.37;12.90;;;;;;;21.28;91.60;94780.50;5074453;28;20445;-82
2022/09/10 05:21:11;;;;;;;18.10;14.57;;;;;;;21.18;92.19;94764.00;5075091;28;20452;-82
2022/09/10 05:23:40;;;;;;;17.10;13.77;;;;;;;21.27;92.31;94761.00;5074959;28;20502;-82
2022/09/10 05:26:08;;;;;;;14.80;13.30;;;;;;;21.21;92.10;94755.59;5074543;28;20876;-81
2022/09/10 05:28:35;;;;;;;17.57;14.37;;;;;;;21.15;92.19;94767.88;5074185;28;20450;-82
2022/09/10 05:31:02;;;;;;;14.60;13.20;;;;;;;20.99;93.39;94776.22;5074255;28;20444;-82
2022/09/10 05:33:29;;;;;;;15.73;13.40;;;;;;;20.96;94.08;94781.94;5074432;28;20499;-81
2022/09/10 05:35:56;;;;;;;15.53;13.93;;;;;;;20.96;94.24;94789.94;5074395;28;20480;-82
2022/09/10 05:38:23;;;;;;;22.40;15.80;;;;;;;20.98;94.26;94793.25;5074204;28;20453;-81
2022/09/10 05:40:52;;;;;;;19.40;15.87;;;;;;;20.94;95.24;94790.13;5073510;28;20480;-81
2022/09/10 05:43:19;;;;;;;23.00;17.77;;;;;;;20.85;95.34;94777.16;5063869;28;20444;-82
2022/09/10 05:45:46;;;;;;;23.13;15.17;;;;;;;20.88;96.39;94787.44;5070609;28;20437;-82
2022/09/10 05:48:13;;;;;;;19.27;14.70;;;;;;;20.85;96.64;94788.66;5074397;28;20429;-81
2022/09/10 05:50:40;;;;;;;22.33;16.83;;;;;;;20.91;97.14;94781.72;5073966;28;20482;-81
2022/09/10 05:53:08;;;;;;;19.17;15.80;;;;;;;20.91;96.26;94782.53;5073911;28;20939;-82
2022/09/10 05:55:35;;;;;;;20.73;16.10;;;;;;;21.01;96.08;94796.34;5073860;28;20469;-82
2022/09/10 05:58:03;;;;;;;22.60;15.80;;;;;;;21.04;95.63;94797.78;5073855;28;20449;-82
2022/09/10 06:00:30;;;;;;;17.33;15.57;;;;;;;21.01;95.23;94793.66;5073790;28;20448;-82
2022/09/10 06:02:57;;;;;;;17.83;15.60;;;;;;;20.94;95.89;94789.31;5073786;28;20457;-82
2022/09/10 06:05:24;;;;;;;18.17;16.10;;;;;;;21.01;95.54;94788.31;5073561;28;21024;-81
2022/09/10 06:07:51;;;;;;;18.47;16.67;;;;;;;21.00;96.11;94784.00;5073512;28;20962;-82
2022/09/10 06:10:18;;;;;;;23.47;16.20;;;;;;;20.95;96.50;94785.63;5054812;28;20445;-82
2022/09/10 06:12:46;;;;;;;18.97;17.00;;;;;;;21.03;96.71;94778.28;5073151;28;20535;-82
2022/09/10 06:15:14;;;;;;;23.67;15.30;;;;;;;21.12;96.13;94778.97;5073243;28;20634;-81
2022/09/10 06:17:42;;;;;;;18.77;16.90;;;;;;;21.13;96.00;94761.94;5073632;28;20974;-81
2022/09/10 06:20:11;;;;;;;17.90;16.20;;;;;;;21.25;95.90;94771.03;5073322;28;20448;-81
2022/09/10 06:22:38;;;;;;;17.67;15.87;;;;;;;21.30;95.39;94784.59;5073246;28;20498;-81
2022/09/10 06:25:06;;;;;;;20.90;14.57;;;;;;;21.34;94.01;94782.38;5073774;28;20452;-82
2022/09/10 06:27:34;;;;;;;25.00;15.50;;;;;;;21.48;93.72;94783.25;5073527;28;21214;-82
2022/09/10 06:30:00;;;;;;;43.70;18.50;;;;;;;21.63;91.98;94787.41;5072856;28;20484;-80
2022/09/10 06:32:29;;;;;;;48.90;19.30;;;;;;;21.75;90.80;94789.50;5073406;28;20449;-82
2022/09/10 06:34:55;;;;;;;19.10;15.77;;;;;;;21.93;89.31;94792.41;5072920;28;20449;-82
2022/09/10 06:37:23;;;;;;;20.23;14.00;;;;;;;22.03;88.38;94792.88;5073154;28;20448;-82
2022/09/10 06:39:49;;;;;;;25.23;16.47;;;;;;;22.21;87.21;94797.63;5073020;28;20499;-81
2022/09/10 06:42:16;;;;;;;18.23;15.30;;;;;;;22.31;85.94;94799.94;5072978;28;20452;-82
2022/09/10 06:44:44;;;;;;;18.33;15.03;;;;;;;22.43;86.24;94803.63;5072870;28;20456;-82
2022/09/10 06:47:10;;;;;;;24.73;15.93;;;;;;;22.54;86.12;94811.03;5072932;28;20523;-81
2022/09/10 06:49:39;;;;;;;17.73;14.43;;;;;;;22.63;85.85;94807.16;5072873;28;20456;-81
2022/09/10 06:52:05;;;;;;;25.03;15.77;;;;;;;22.74;85.33;94803.00;5054279;28;20452;-82
2022/09/10 06:54:32;;;;;;;25.83;15.80;;;;;;;22.82;83.97;94813.53;5072805;28;20938;-82
2022/09/10 06:57:00;;;;;;;20.50;14.90;;;;;;;22.88;83.38;94804.69;5072661;28;20485;-81
2022/09/10 06:59:27;;;;;;;17.77;14.63;;;;;;;22.95;83.48;94796.66;5072412;28;20804;-81
2022/09/10 07:01:54;;;;;;;20.23;14.90;;;;;;;23.17;82.63;94792.69;5072627;28;20445;-82
2022/09/10 07:04:21;;;;;;;20.10;15.10;;;;;;;23.37;83.09;94796.13;5072594;28;20448;-81
2022/09/10 07:06:50;;;;;;;20.10;14.60;;;;;;;23.78;81.20;94795.78;5072588;28;20448;-82
2022/09/10 07:09:17;;;;;;;15.40;13.80;;;;;;;24.19;78.91;94793.69;5072509;28;20453;-82
2022/09/10 07:11:44;;;;;;;18.07;15.13;;;;;;;24.41;78.33;94792.34;5072334;28;20962;-81
2022/09/10 07:14:11;;;;;;;19.03;14.20;;;;;;;24.55;76.45;94788.50;5072598;28;20449;-82
2022/09/10 07:16:40;;;;;;;15.47;13.77;;;;;;;24.79;75.53;94789.53;5072368;28;20565;-82
2022/09/10 07:19:07;;;;;;;15.63;12.93;;;;;;;25.11;75.10;94786.78;5072218;28;20449;-82
2022/09/10 07:21:36;;;;;;;13.40;12.10;;;;;;;25.53;73.78;94796.66;5072386;28;20449;-82
2022/09/10 07:24:05;;;;;;;13.83;12.00;;;;;;;25.99;71.14;94802.53;5071858;28;20510;-82
2022/09/10 07:26:33;;;;;;;12.33;11.20;;;;;;;26.23;66.32;94805.09;5072397;28;20452;-82
2022/09/10 07:28:59;;;;;;;13.33;11.33;;;;;;;26.50;66.27;94796.66;5072639;28;20468;-82
2022/09/10 07:31:29;;;;;;;13.27;11.00;;;;;;;26.68;65.38;94782.31;5072314;28;20441;-82
2022/09/10 07:33:56;;;;;;;11.63;10.53;;;;;;;26.64;64.71;94783.81;5072140;28;20444;-82
2022/09/10 07:36:24;;;;;;;12.77;11.47;;;;;;;26.67;63.98;94789.56;5072195;28;20485;-83
2022/09/10 07:38:53;;;;;;;20.93;10.97;;;;;;;26.98;64.13;94793.78;5036687;28;20441;-83
2022/09/10 07:41:21;;;;;;;13.53;10.00;;;;;;;27.16;63.45;94780.22;5072296;28;20453;-82
2022/09/10 07:43:52;;;;;;;11.97;10.97;;;;;;;27.37;62.24;94786.06;5072100;28;20455;-82
2022/09/10 07:46:21;;;;;;;15.07;11.40;;;;;;;27.53;61.86;94790.75;5072303;28;20448;-82
2022/09/10 07:48:52;;;;;;;12.70;11.37;;;;;;;27.80;62.22;94793.75;5071995;28;20443;-82
2022/09/10 07:51:20;;;;;;;13.73;10.33;;;;;;;28.17;62.58;94796.88;5072386;28;20448;-82
2022/09/10 07:53:47;;;;;;;16.07;11.43;;;;;;;28.50;60.69;94790.75;5072324;28;20444;-82
2022/09/10 07:56:14;;;;;;;21.20;12.77;;;;;;;28.66;58.40;94784.56;5036671;28;20614;-82
2022/09/10 07:58:42;;;;;;;13.27;11.00;;;;;;;28.64;58.24;94794.00;5071940;28;20468;-82
2022/09/10 08:01:12;;;;;;;14.10;11.57;;;;;;;28.50;58.45;94784.56;5072055;28;20452;-82
2022/09/10 08:03:39;;;;;;;14.70;11.63;;;;;;;28.34;58.93;94787.00;5072210;28;20950;-82
2022/09/10 08:06:08;;;;;;;15.70;12.20;;;;;;;28.18;59.13;94781.53;5072124;28;20536;-83
2022/09/10 08:08:36;;;;;;;14.33;11.70;;;;;;;28.22;58.72;94780.78;5072088;28;20448;-82
2022/09/10 08:11:05;;;;;;;15.87;12.90;;;;;;;28.28;59.08;94785.25;5071975;28;20441;-83
2022/09/10 08:13:34;;;;;;;13.13;11.83;;;;;;;28.42;59.43;94776.84;5071783;28;20440;-82
2022/09/10 08:16:05;;;;;;;15.00;11.60;;;;;;;28.53;58.22;94778.66;5071811;28;20545;-83
2022/09/10 08:18:32;;;;;;;21.40;11.80;;;;;;;28.62;58.15;94777.19;5072142;28;20471;-82
2022/09/10 08:20:58;;;;;;;17.43;11.43;;;;;;;28.68;56.60;94778.94;5052899;28;20445;-82
2022/09/10 08:23:27;;;;;;;13.97;11.57;;;;;;;28.64;56.81;94781.31;5071793;28;20445;-83
2022/09/10 08:25:55;;;;;;;21.10;12.30;;;;;;;28.80;56.36;94776.13;5071768;28;20544;-83
2022/09/10 08:28:22;;;;;;;22.60;10.90;;;;;;;28.94;54.85;94774.78;5071373;28;20456;-82
2022/09/10 08:30:57;;;;;;;19.97;12.37;;;;;;;28.92;55.38;94777.72;5072154;28;20526;-83
2022/09/10 08:33:26;;;;;;;16.67;12.80;;;;;;;28.88;56.13;94771.16;5071786;28;20887;-83
2022/09/10 08:35:55;;;;;;;14.10;11.27;;;;;;;28.90;56.00;94779.84;5075052;28;20485;-83
2022/09/10 08:38:23;;;;;;;16.13;12.30;;;;;;;28.75;55.32;94765.25;5075691;28;20856;-82
2022/09/10 08:40:51;;;;;;;15.90;12.60;;;;;;;28.43;57.10;94760.41;5075647;28;20566;-83
2022/09/10 08:43:27;;;;;;;14.90;13.10;;;;;;;28.19;57.47;94756.16;5075438;28;20476;-83
2022/09/10 08:45:55;;;;;;;14.13;11.00;;;;;;;27.78;57.58;94750.03;5075498;28;20449;-83
2022/09/10 08:48:23;;;;;;;13.80;11.93;;;;;;;27.70;57.74;94753.06;5075370;28;20527;-83
2022/09/10 08:50:57;;;;;;;14.57;11.70;;;;;;;27.53;59.88;94753.00;5074988;28;20932;-82
2022/09/10 08:53:28;;;;;;;13.10;11.70;;;;;;;27.37;59.70;94748.34;5075148;28;20436;-83
2022/09/10 08:55:59;;;;;;;20.93;12.90;;;;;;;27.20;60.02;94752.84;5075197;28;20444;-82
2022/09/10 08:58:30;;;;;;;18.33;11.43;;;;;;;27.16;61.22;94755.97;5075261;28;20441;-82
2022/09/10 09:01:03;;;;;;;12.93;11.60;;;;;;;27.09;60.90;94757.97;5074821;28;20919;-82
2022/09/10 09:03:36;;;;;;;15.80;13.10;;;;;;;26.96;61.22;94752.00;5074764;28;20920;-82
2022/09/10 09:06:08;;;;;;;15.00;11.10;;;;;;;26.85;61.87;94743.66;5074763;28;20448;-83
2022/09/10 09:08:39;;;;;;;13.70;11.40;;;;;;;26.75;61.83;94751.50;5074904;28;20961;-83
2022/09/10 09:11:12;;;;;;;14.10;11.47;;;;;;;26.70;62.20;94750.56;5075083;28;20448;-83
2022/09/10 09:14:03;;;;;;;13.03;11.50;;;;;;;26.63;62.30;94749.88;5074810;28;20839;-83
2022/09/10 09:16:52;;;;;;;15.80;12.33;;;;;;;26.59;61.38;94746.81;5074810;28;20885;-83
2022/09/10 09:19:27;;;;;;;14.10;11.60;;;;;;;26.54;62.21;94744.00;5074805;28;20448;-83
2022/09/10 09:22:00;;;;;;;19.00;11.10;;;;;;;26.49;62.33;94742.00;5074929;28;20448;-82
2022/09/10 09:24:46;;;;;;;21.63;11.00;;;;;;;26.48;62.80;94729.59;5074501;28;20490;-82
2022/09/10 09:27:16;;;;;;;14.77;10.97;;;;;;;26.51;64.26;94731.81;5074672;28;20860;-82
2022/09/10 09:29:49;;;;;;;16.73;11.73;;;;;;;26.50;64.51;94721.28;5074781;28;20496;-82
2022/09/10 09:32:20;;;;;;;16.93;11.40;;;;;;;26.54;64.92;94725.97;5074689;28;20452;-83
2022/09/10 09:34:52;;;;;;;26.73;11.70;;;;;;;26.54;64.13;94720.59;5074214;28;20440;-81
2022/09/10 09:37:25;;;;;;;15.40;11.93;;;;;;;26.55;64.55;94708.78;5073978;28;20507;-82
2022/09/10 09:40:05;;;;;;;16.20;11.50;;;;;;;26.61;64.94;94711.59;5074369;28;20449;-83
2022/09/10 09:42:40;;;;;;;19.83;11.63;;;;;;;26.66;65.26;94714.41;5074334;28;20531;-82
2022/09/10 09:45:18;;;;;;;13.20;11.90;;;;;;;26.70;64.42;94702.94;5073833;28;20456;-82
2022/09/10 09:47:45;;;;;;;13.90;12.20;;;;;;;26.73;63.45;94705.16;5073689;28;20468;-83
2022/09/10 09:50:13;;;;;;;19.40;10.97;;;;;;;26.74;62.52;94695.22;5074131;28;20480;-83
2022/09/10 09:52:44;;;;;;;19.43;11.23;;;;;;;26.72;62.15;94692.75;5073872;28;20445;-82
2022/09/10 09:55:28;;;;;;;14.00;11.60;;;;;;;26.62;64.16;94689.03;5074044;28;20808;-83
2022/09/10 09:58:29;;;;;;;14.27;11.57;;;;;;;26.53;63.58;94683.97;5073552;28;20571;-82
2022/09/10 10:01:08;;;;;;;12.90;11.53;;;;;;;26.53;63.59;94677.75;5073781;28;20476;-82
2022/09/10 10:03:45;;;;;;;15.33;11.80;;;;;;;26.61;64.05;94671.22;5073947;28;20867;-82
2022/09/10 10:06:12;;;;;;;16.13;10.70;;;;;;;26.64;64.13;94670.75;5073516;28;20507;-82
2022/09/10 10:08:44;;;;;;;24.63;10.70;;;;;;;26.66;63.71;94672.16;5073463;28;20955;-83
2022/09/10 10:11:13;;;;;;;13.10;11.23;;;;;;;26.75;63.72;94659.16;5073728;28;20449;-82
2022/09/10 10:13:43;;;;;;;15.00;12.07;;;;;;;26.97;64.01;94652.09;5073462;28;20436;-82
2022/09/10 10:16:20;;;;;;;19.60;10.17;;;;;;;27.13;61.80;94645.16;5073281;28;20447;-82
2022/09/10 10:18:48;;;;;;;14.10;12.03;;;;;;;27.38;62.28;94647.56;5073328;28;20835;-81
2022/09/10 10:21:20;;;;;;;14.30;10.33;;;;;;;27.55;61.31;94634.13;5073502;28;20806;-83
2022/09/10 10:23:49;;;;;;;13.93;12.37;;;;;;;27.71;60.89;94631.50;5073402;28;20522;-83
2022/09/10 10:26:24;;;;;;;11.50;10.40;;;;;;;27.86;59.93;94616.66;5073280;28;20437;-83
2022/09/10 10:28:53;;;;;;;19.13;10.93;;;;;;;27.95;59.90;94618.69;5073156;28;20471;-83
2022/09/10 10:31:21;;;;;;;15.63;11.37;;;;;;;28.00;59.37;94607.16;5073339;28;20840;-82
2022/09/10 10:33:57;;;;;;;14.27;12.00;;;;;;;27.93;59.77;94612.72;5073353;28;20448;-83
2022/09/10 10:36:31;;;;;;;13.03;10.77;;;;;;;28.00;59.05;94615.25;5073072;28;20445;-82
2022/09/10 10:39:07;;;;;;;12.80;11.47;;;;;;;28.15;59.05;94610.13;5072994;28;20460;-83
2022/09/10 10:41:45;;;;;;;11.30;9.97;;;;;;;28.18;58.30;94606.94;5073217;28;20456;-82
2022/09/10 10:44:36;;;;;;;11.63;10.37;;;;;;;28.24;57.40;94613.22;5073241;28;20442;-82
2022/09/10 10:47:17;;;;;;;13.20;11.43;;;;;;;28.42;58.31;94610.31;5073521;28;20798;-83
2022/09/10 10:49:54;;;;;;;16.57;10.80;;;;;;;28.51;58.03;94610.69;5072985;28;20734;-82
2022/09/10 10:52:30;;;;;;;16.33;11.83;;;;;;;28.64;57.65;94608.47;5073027;28;20443;-82
2022/09/10 10:55:10;;;;;;;14.47;10.83;;;;;;;28.73;57.28;94600.75;5073302;28;20433;-83
2022/09/10 10:57:54;;;;;;;14.43;10.73;;;;;;;28.80;56.94;94601.38;5072175;28;20472;-83
2022/09/10 11:00:21;;;;;;;13.17;10.33;;;;;;;28.86;56.04;94599.59;5072717;28;20472;-83
2022/09/10 11:02:53;;;;;;;18.23;12.50;;;;;;;28.85;56.45;94595.25;5072893;28;20449;-82
2022/09/10 11:05:26;;;;;;;13.20;11.20;;;;;;;28.77;57.04;94587.56;5072679;28;20449;-83
2022/09/10 11:07:55;;;;;;;19.30;11.10;;;;;;;28.71;56.99;94586.69;5072669;28;20468;-83
2022/09/10 11:10:28;;;;;;;13.70;10.53;;;;;;;28.76;58.06;94580.53;5072491;28;20494;-83
2022/09/10 11:13:03;;;;;;;18.10;11.93;;;;;;;28.76;56.92;94567.03;5073018;28;20436;-83
2022/09/10 11:15:35;;;;;;;12.67;9.30;;;;;;;28.78;56.42;94573.00;5072689;28;20466;-83
2022/09/10 11:18:10;;;;;;;11.77;9.87;;;;;;;28.76;56.58;94578.63;5072407;28;20484;-83
2022/09/10 11:20:42;;;;;;;19.70;11.23;;;;;;;28.75;55.98;94576.19;5072286;28;20444;-83
2022/09/10 11:23:26;;;;;;;20.27;11.30;;;;;;;28.82;55.36;94566.00;5072461;28;20536;-83
2022/09/10 11:25:59;;;;;;;13.90;10.13;;;;;;;28.90;54.96;94574.50;5072122;28;20507;-83
2022/09/10 11:28:31;;;;;;;11.70;9.60;;;;;;;28.87;55.23;94580.41;5072420;28;20460;-83
2022/09/10 11:31:05;;;;;;;18.63;9.93;;;;;;;28.95;53.81;94601.63;5072314;28;20530;-83